sensor_id;sensor_type;location;lat;lon;timestamp;temperature;humidity
43679;DHT22;29279;50.858;4.392;2022-10-16T00:01:58;15.30;99.90
43679;DHT22;29279;50.858;4.392;2022-10-16T00:04:23;15.30;99.90
43679;DHT22;29279;50.858;4.392;2022-10-16T00:06:49;15.30;99.90
43679;DHT22;29279;50.858;4.392;2022-10-16T00:09:15;15.30;99.90
43679;DHT22;29279;50.858;4.392;2022-10-16T00:11:40;15.20;99.90
43679;DHT22;29279;50.858;4.392;2022-10-16T00:14:12;15.30;99.90
43679;DHT22;29279;50.858;4.392;2022-10-16T00:16:38;15.20;99.90
43679;DHT22;29279;50.858;4.392;2022-10-16T00:19:04;15.20;99.90
43679;DHT22;29279;50.858;4.392;2022-10-16T00:21:31;15.10;99.90
43679;DHT22;29279;50.858;4.392;2022-10-16T00:23:59;15.20;99.90
43679;DHT22;29279;50.858;4.392;2022-10-16T00:26:29;15.10;99.90
43679;DHT22;29279;50.858;4.392;2022-10-16T00:28:55;15.10;99.90
43679;DHT22;29279;50.858;4.392;2022-10-16T00:31:22;15.10;99.90
43679;DHT22;29279;50.858;4.392;2022-10-16T00:33:48;15.10;99.90
43679;DHT22;29279;50.858;4.392;2022-10-16T00:36:17;15.00;99.90
43679;DHT22;29279;50.858;4.392;2022-10-16T00:38:43;15.00;99.90
43679;DHT22;29279;50.858;4.392;2022-10-16T00:41:14;14.90;99.90
43679;DHT22;29279;50.858;4.392;2022-10-16T00:46:41;14.90;99.90
43679;DHT22;29279;50.858;4.392;2022-10-16T00:49:18;15.00;99.90
43679;DHT22;29279;50.858;4.392;2022-10-16T00:51:50;15.00;99.90
43679;DHT22;29279;50.858;4.392;2022-10-16T00:54:21;15.00;99.90
43679;DHT22;29279;50.858;4.392;2022-10-16T00:56:48;15.00;99.90
43679;DHT22;29279;50.858;4.392;2022-10-16T00:59:18;14.90;99.90
43679;DHT22;29279;50.858;4.392;2022-10-16T01:01:45;14.90;99.90
43679;DHT22;29279;50.858;4.392;2022-10-16T01:04:11;14.80;99.90
43679;DHT22;29279;50.858;4.392;2022-10-16T01:07:02;14.80;99.90
43679;DHT22;29279;50.858;4.392;2022-10-16T01:09:52;14.80;99.90
43679;DHT22;29279;50.858;4.392;2022-10-16T01:12:27;14.80;99.90
43679;DHT22;29279;50.858;4.392;2022-10-16T01:20:37;14.90;99.90
43679;DHT22;29279;50.858;4.392;2022-10-16T01:28:55;14.80;99.90
43679;DHT22;29279;50.858;4.392;2022-10-16T01:31:25;14.80;99.90
43679;DHT22;29279;50.858;4.392;2022-10-16T01:34:02;14.90;99.90
43679;DHT22;29279;50.858;4.392;2022-10-16T01:36:36;15.00;99.90
43679;DHT22;29279;50.858;4.392;2022-10-16T01:39:03;15.00;99.90
43679;DHT22;29279;50.858;4.392;2022-10-16T01:41:36;15.00;99.90
43679;DHT22;29279;50.858;4.392;2022-10-16T01:44:22;14.80;99.90
43679;DHT22;29279;50.858;4.392;2022-10-16T01:46:52;14.80;99.90
43679;DHT22;29279;50.858;4.392;2022-10-16T01:49:19;14.80;99.90
43679;DHT22;29279;50.858;4.392;2022-10-16T01:51:49;14.80;99.90
43679;DHT22;29279;50.858;4.392;2022-10-16T01:54:18;14.80;99.90
43679;DHT22;29279;50.858;4.392;2022-10-16T01:56:45;14.80;99.90
43679;DHT22;29279;50.858;4.392;2022-10-16T01:59:16;15.00;99.90
43679;DHT22;29279;50.858;4.392;2022-10-16T02:01:47;15.00;99.90
43679;DHT22;29279;50.858;4.392;2022-10-16T02:04:37;14.90;99.90
43679;DHT22;29279;50.858;4.392;2022-10-16T02:07:04;14.90;99.90
43679;DHT22;29279;50.858;4.392;2022-10-16T02:09:32;14.90;99.90
43679;DHT22;29279;50.858;4.392;2022-10-16T02:12:00;15.00;99.90
43679;DHT22;29279;50.858;4.392;2022-10-16T02:14:28;14.90;99.90
43679;DHT22;29279;50.858;4.392;2022-10-16T02:16:54;15.00;99.90
43679;DHT22;29279;50.858;4.392;2022-10-16T02:19:21;15.00;99.90
43679;DHT22;29279;50.858;4.392;2022-10-16T02:21:51;14.80;99.90
43679;DHT22;29279;50.858;4.392;2022-10-16T02:27:10;14.70;99.90
43679;DHT22;29279;50.858;4.392;2022-10-16T02:29:43;14.70;99.90
43679;DHT22;29279;50.858;4.392;2022-10-16T02:32:15;14.70;99.90
43679;DHT22;29279;50.858;4.392;2022-10-16T02:34:41;14.70;99.90
43679;DHT22;29279;50.858;4.392;2022-10-16T02:37:07;14.70;99.90
43679;DHT22;29279;50.858;4.392;2022-10-16T02:39:34;14.80;99.90
43679;DHT22;29279;50.858;4.392;2022-10-16T02:42:00;14.80;99.90
43679;DHT22;29279;50.858;4.392;2022-10-16T02:44:26;14.80;99.90
43679;DHT22;29279;50.858;4.392;2022-10-16T02:46:52;14.80;99.90
43679;DHT22;29279;50.858;4.392;2022-10-16T02:49:17;14.80;99.90
43679;DHT22;29279;50.858;4.392;2022-10-16T02:51:44;14.70;99.90
43679;DHT22;29279;50.858;4.392;2022-10-16T02:54:09;14.70;99.90
43679;DHT22;29279;50.858;4.392;2022-10-16T02:56:36;14.70;99.90
43679;DHT22;29279;50.858;4.392;2022-10-16T02:59:01;14.60;99.90
43679;DHT22;29279;50.858;4.392;2022-10-16T03:01:27;14.60;99.90
43679;DHT22;29279;50.858;4.392;2022-10-16T03:03:53;14.60;99.90
43679;DHT22;29279;50.858;4.392;2022-10-16T03:06:18;14.60;99.90
43679;DHT22;29279;50.858;4.392;2022-10-16T03:08:44;14.60;99.90
43679;DHT22;29279;50.858;4.392;2022-10-16T03:11:10;14.70;99.90
43679;DHT22;29279;50.858;4.392;2022-10-16T03:13:35;14.80;99.90
43679;DHT22;29279;50.858;4.392;2022-10-16T03:16:01;14.60;99.90
43679;DHT22;29279;50.858;4.392;2022-10-16T03:18:27;14.60;99.90
43679;DHT22;29279;50.858;4.392;2022-10-16T03:20:53;14.60;99.90
43679;DHT22;29279;50.858;4.392;2022-10-16T03:23:18;14.70;99.90
43679;DHT22;29279;50.858;4.392;2022-10-16T03:25:44;14.60;99.90
43679;DHT22;29279;50.858;4.392;2022-10-16T03:28:10;14.70;99.90
43679;DHT22;29279;50.858;4.392;2022-10-16T03:30:35;14.70;99.90
43679;DHT22;29279;50.858;4.392;2022-10-16T03:33:01;14.60;99.90
43679;DHT22;29279;50.858;4.392;2022-10-16T03:35:27;14.50;99.90
43679;DHT22;29279;50.858;4.392;2022-10-16T03:37:52;14.50;99.90
43679;DHT22;29279;50.858;4.392;2022-10-16T03:40:18;14.60;99.90
43679;DHT22;29279;50.858;4.392;2022-10-16T03:42:44;14.50;99.90
43679;DHT22;29279;50.858;4.392;2022-10-16T03:45:11;14.60;99.90
43679;DHT22;29279;50.858;4.392;2022-10-16T03:47:37;14.70;99.90
43679;DHT22;29279;50.858;4.392;2022-10-16T03:50:03;14.70;99.90
43679;DHT22;29279;50.858;4.392;2022-10-16T03:52:29;14.60;99.90
43679;DHT22;29279;50.858;4.392;2022-10-16T03:54:55;14.60;99.90
43679;DHT22;29279;50.858;4.392;2022-10-16T03:57:21;14.70;99.90
43679;DHT22;29279;50.858;4.392;2022-10-16T03:59:46;14.60;99.90
43679;DHT22;29279;50.858;4.392;2022-10-16T04:02:12;14.50;99.90
43679;DHT22;29279;50.858;4.392;2022-10-16T04:04:38;14.50;99.90
43679;DHT22;29279;50.858;4.392;2022-10-16T04:07:04;14.60;99.90
43679;DHT22;29279;50.858;4.392;2022-10-16T04:09:30;14.50;99.90
43679;DHT22;29279;50.858;4.392;2022-10-16T04:11:55;14.50;99.90
43679;DHT22;29279;50.858;4.392;2022-10-16T04:14:21;14.50;99.90
43679;DHT22;29279;50.858;4.392;2022-10-16T04:16:47;14.40;99.90
43679;DHT22;29279;50.858;4.392;2022-10-16T04:19:12;14.40;99.90
43679;DHT22;29279;50.858;4.392;2022-10-16T04:21:39;14.50;99.90
43679;DHT22;29279;50.858;4.392;2022-10-16T04:24:04;14.50;99.90
43679;DHT22;29279;50.858;4.392;2022-10-16T04:26:30;14.50;99.90
43679;DHT22;29279;50.858;4.392;2022-10-16T04:28:56;14.60;99.90
43679;DHT22;29279;50.858;4.392;2022-10-16T04:31:22;14.60;99.90
43679;DHT22;29279;50.858;4.392;2022-10-16T04:33:48;14.50;99.90
43679;DHT22;29279;50.858;4.392;2022-10-16T04:36:13;14.50;99.90
43679;DHT22;29279;50.858;4.392;2022-10-16T04:38:39;14.60;99.90
43679;DHT22;29279;50.858;4.392;2022-10-16T04:41:06;14.60;99.90
43679;DHT22;29279;50.858;4.392;2022-10-16T04:43:32;14.50;99.90
43679;DHT22;29279;50.858;4.392;2022-10-16T04:45:58;14.50;99.90
43679;DHT22;29279;50.858;4.392;2022-10-16T04:48:24;14.40;99.90
43679;DHT22;29279;50.858;4.392;2022-10-16T04:50:50;14.40;99.90
43679;DHT22;29279;50.858;4.392;2022-10-16T04:53:15;14.50;99.90
43679;DHT22;29279;50.858;4.392;2022-10-16T04:55:41;14.60;99.90
43679;DHT22;29279;50.858;4.392;2022-10-16T04:58:07;14.50;99.90
43679;DHT22;29279;50.858;4.392;2022-10-16T05:00:34;14.50;99.90
43679;DHT22;29279;50.858;4.392;2022-10-16T05:03:00;14.50;99.90
43679;DHT22;29279;50.858;4.392;2022-10-16T05:05:27;14.60;99.90
43679;DHT22;29279;50.858;4.392;2022-10-16T05:07:53;14.60;99.90
43679;DHT22;29279;50.858;4.392;2022-10-16T05:10:19;14.50;99.90
43679;DHT22;29279;50.858;4.392;2022-10-16T05:12:46;14.50;99.90
43679;DHT22;29279;50.858;4.392;2022-10-16T05:15:12;14.50;99.90
43679;DHT22;29279;50.858;4.392;2022-10-16T05:17:38;14.50;99.90
43679;DHT22;29279;50.858;4.392;2022-10-16T05:20:04;14.50;99.90
43679;DHT22;29279;50.858;4.392;2022-10-16T05:22:30;14.50;99.90
43679;DHT22;29279;50.858;4.392;2022-10-16T05:24:56;14.50;99.90
43679;DHT22;29279;50.858;4.392;2022-10-16T05:27:21;14.40;99.90
43679;DHT22;29279;50.858;4.392;2022-10-16T05:29:48;14.40;99.90
43679;DHT22;29279;50.858;4.392;2022-10-16T05:32:18;14.30;99.90
43679;DHT22;29279;50.858;4.392;2022-10-16T05:34:44;14.30;99.90
43679;DHT22;29279;50.858;4.392;2022-10-16T05:37:11;14.30;99.90
43679;DHT22;29279;50.858;4.392;2022-10-16T05:39:37;14.20;99.90
43679;DHT22;29279;50.858;4.392;2022-10-16T05:42:04;14.20;99.90
43679;DHT22;29279;50.858;4.392;2022-10-16T05:44:30;14.10;99.90
43679;DHT22;29279;50.858;4.392;2022-10-16T05:46:55;14.10;99.90
43679;DHT22;29279;50.858;4.392;2022-10-16T05:49:21;14.10;99.90
43679;DHT22;29279;50.858;4.392;2022-10-16T05:51:47;14.10;99.90
43679;DHT22;29279;50.858;4.392;2022-10-16T05:54:12;14.10;99.90
43679;DHT22;29279;50.858;4.392;2022-10-16T05:56:38;14.20;99.90
43679;DHT22;29279;50.858;4.392;2022-10-16T05:59:04;14.20;99.90
43679;DHT22;29279;50.858;4.392;2022-10-16T06:01:31;14.20;99.90
43679;DHT22;29279;50.858;4.392;2022-10-16T06:03:57;14.30;99.90
43679;DHT22;29279;50.858;4.392;2022-10-16T06:06:24;14.30;99.90
43679;DHT22;29279;50.858;4.392;2022-10-16T06:08:52;14.30;99.90
43679;DHT22;29279;50.858;4.392;2022-10-16T06:11:23;14.20;99.90
43679;DHT22;29279;50.858;4.392;2022-10-16T06:13:56;14.30;99.90
43679;DHT22;29279;50.858;4.392;2022-10-16T06:16:23;14.20;99.90
43679;DHT22;29279;50.858;4.392;2022-10-16T06:18:51;14.10;99.90
43679;DHT22;29279;50.858;4.392;2022-10-16T06:21:19;14.10;99.90
43679;DHT22;29279;50.858;4.392;2022-10-16T06:23:45;14.20;99.90
43679;DHT22;29279;50.858;4.392;2022-10-16T06:26:16;14.20;99.90
43679;DHT22;29279;50.858;4.392;2022-10-16T06:28:42;14.20;99.90
43679;DHT22;29279;50.858;4.392;2022-10-16T06:31:09;14.40;99.90
43679;DHT22;29279;50.858;4.392;2022-10-16T06:33:36;14.40;99.90
43679;DHT22;29279;50.858;4.392;2022-10-16T06:36:03;14.40;99.90
43679;DHT22;29279;50.858;4.392;2022-10-16T06:38:29;14.50;99.90
43679;DHT22;29279;50.858;4.392;2022-10-16T06:40:55;14.60;99.90
43679;DHT22;29279;50.858;4.392;2022-10-16T06:43:21;14.60;99.90
43679;DHT22;29279;50.858;4.392;2022-10-16T06:45:54;14.60;99.90
43679;DHT22;29279;50.858;4.392;2022-10-16T06:48:20;14.60;99.90
43679;DHT22;29279;50.858;4.392;2022-10-16T06:51:03;14.70;99.90
43679;DHT22;29279;50.858;4.392;2022-10-16T06:53:32;14.90;99.90
43679;DHT22;29279;50.858;4.392;2022-10-16T06:56:16;15.00;99.90
43679;DHT22;29279;50.858;4.392;2022-10-16T06:58:43;15.00;99.90
43679;DHT22;29279;50.858;4.392;2022-10-16T07:01:09;15.20;99.90
43679;DHT22;29279;50.858;4.392;2022-10-16T07:03:37;15.20;99.90
43679;DHT22;29279;50.858;4.392;2022-10-16T07:06:05;15.10;99.90
43679;DHT22;29279;50.858;4.392;2022-10-16T07:08:32;15.20;99.90
43679;DHT22;29279;50.858;4.392;2022-10-16T07:11:04;15.10;99.90
43679;DHT22;29279;50.858;4.392;2022-10-16T07:13:32;15.30;99.90
43679;DHT22;29279;50.858;4.392;2022-10-16T07:15:58;15.30;99.90
43679;DHT22;29279;50.858;4.392;2022-10-16T07:18:29;15.30;99.90
43679;DHT22;29279;50.858;4.392;2022-10-16T07:21:06;15.40;99.90
43679;DHT22;29279;50.858;4.392;2022-10-16T07:23:33;15.40;99.90
43679;DHT22;29279;50.858;4.392;2022-10-16T07:25:58;15.40;99.90
43679;DHT22;29279;50.858;4.392;2022-10-16T07:28:24;15.40;99.90
43679;DHT22;29279;50.858;4.392;2022-10-16T07:30:50;15.40;99.90
43679;DHT22;29279;50.858;4.392;2022-10-16T07:33:16;15.40;99.90
43679;DHT22;29279;50.858;4.392;2022-10-16T07:35:49;15.40;99.90
43679;DHT22;29279;50.858;4.392;2022-10-16T07:38:15;15.40;99.90
43679;DHT22;29279;50.858;4.392;2022-10-16T07:40:41;15.40;99.90
43679;DHT22;29279;50.858;4.392;2022-10-16T07:43:06;15.50;99.90
43679;DHT22;29279;50.858;4.392;2022-10-16T07:45:32;15.70;99.90
43679;DHT22;29279;50.858;4.392;2022-10-16T07:47:58;15.80;99.90
43679;DHT22;29279;50.858;4.392;2022-10-16T07:50:23;16.00;99.90
43679;DHT22;29279;50.858;4.392;2022-10-16T07:52:49;16.20;99.90
43679;DHT22;29279;50.858;4.392;2022-10-16T07:55:15;16.40;99.90
43679;DHT22;29279;50.858;4.392;2022-10-16T07:57:40;16.80;99.90
43679;DHT22;29279;50.858;4.392;2022-10-16T08:00:06;17.20;99.90
43679;DHT22;29279;50.858;4.392;2022-10-16T08:02:32;17.60;99.90
43679;DHT22;29279;50.858;4.392;2022-10-16T08:04:58;18.20;99.90
43679;DHT22;29279;50.858;4.392;2022-10-16T08:07:23;18.90;99.90
43679;DHT22;29279;50.858;4.392;2022-10-16T08:09:50;19.60;99.90
43679;DHT22;29279;50.858;4.392;2022-10-16T08:12:17;20.20;99.90
43679;DHT22;29279;50.858;4.392;2022-10-16T08:14:42;20.60;99.90
43679;DHT22;29279;50.858;4.392;2022-10-16T08:17:08;21.40;99.90
43679;DHT22;29279;50.858;4.392;2022-10-16T08:19:34;21.90;99.90
43679;DHT22;29279;50.858;4.392;2022-10-16T08:22:00;22.30;99.90
43679;DHT22;29279;50.858;4.392;2022-10-16T08:24:26;22.80;99.90
43679;DHT22;29279;50.858;4.392;2022-10-16T08:26:54;23.20;99.90
43679;DHT22;29279;50.858;4.392;2022-10-16T08:29:19;23.40;99.90
43679;DHT22;29279;50.858;4.392;2022-10-16T08:31:45;23.30;99.90
43679;DHT22;29279;50.858;4.392;2022-10-16T08:34:11;23.10;99.90
43679;DHT22;29279;50.858;4.392;2022-10-16T08:36:36;22.90;99.90
43679;DHT22;29279;50.858;4.392;2022-10-16T08:39:03;23.40;99.90
43679;DHT22;29279;50.858;4.392;2022-10-16T08:41:49;23.50;99.90
43679;DHT22;29279;50.858;4.392;2022-10-16T08:47:24;23.90;99.90
43679;DHT22;29279;50.858;4.392;2022-10-16T08:50:12;24.50;99.90
43679;DHT22;29279;50.858;4.392;2022-10-16T08:52:43;25.20;99.60
43679;DHT22;29279;50.858;4.392;2022-10-16T08:55:33;25.90;98.60
43679;DHT22;29279;50.858;4.392;2022-10-16T08:58:15;26.40;97.80
43679;DHT22;29279;50.858;4.392;2022-10-16T09:00:43;26.70;96.20
43679;DHT22;29279;50.858;4.392;2022-10-16T09:11:41;27.40;94.50
43679;DHT22;29279;50.858;4.392;2022-10-16T09:17:13;28.20;92.90
43679;DHT22;29279;50.858;4.392;2022-10-16T09:19:48;28.00;92.20
43679;DHT22;29279;50.858;4.392;2022-10-16T09:22:26;27.80;92.50
43679;DHT22;29279;50.858;4.392;2022-10-16T09:24:53;28.20;91.90
43679;DHT22;29279;50.858;4.392;2022-10-16T09:27:19;28.80;91.30
43679;DHT22;29279;50.858;4.392;2022-10-16T09:29:45;29.30;91.00
43679;DHT22;29279;50.858;4.392;2022-10-16T09:32:14;29.80;90.20
43679;DHT22;29279;50.858;4.392;2022-10-16T09:34:46;30.20;89.20
43679;DHT22;29279;50.858;4.392;2022-10-16T09:37:16;30.40;87.80
43679;DHT22;29279;50.858;4.392;2022-10-16T09:39:47;30.50;86.60
43679;DHT22;29279;50.858;4.392;2022-10-16T09:42:27;30.80;86.40
43679;DHT22;29279;50.858;4.392;2022-10-16T09:44:54;29.90;85.80
43679;DHT22;29279;50.858;4.392;2022-10-16T09:47:22;29.70;86.20
43679;DHT22;29279;50.858;4.392;2022-10-16T09:49:57;29.80;85.80
43679;DHT22;29279;50.858;4.392;2022-10-16T09:52:25;29.30;86.50
43679;DHT22;29279;50.858;4.392;2022-10-16T09:55:01;28.70;85.90
43679;DHT22;29279;50.858;4.392;2022-10-16T09:57:27;28.00;87.40
43679;DHT22;29279;50.858;4.392;2022-10-16T09:59:55;28.40;88.40
43679;DHT22;29279;50.858;4.392;2022-10-16T10:02:34;28.90;87.00
43679;DHT22;29279;50.858;4.392;2022-10-16T10:05:00;29.40;86.10
43679;DHT22;29279;50.858;4.392;2022-10-16T10:07:28;30.00;85.40
43679;DHT22;29279;50.858;4.392;2022-10-16T10:09:58;30.60;84.20
43679;DHT22;29279;50.858;4.392;2022-10-16T10:12:26;31.40;82.80
43679;DHT22;29279;50.858;4.392;2022-10-16T10:14:55;31.80;81.00
43679;DHT22;29279;50.858;4.392;2022-10-16T10:17:28;32.30;80.30
43679;DHT22;29279;50.858;4.392;2022-10-16T10:20:01;31.90;79.60
43679;DHT22;29279;50.858;4.392;2022-10-16T10:22:43;30.40;79.60
43679;DHT22;29279;50.858;4.392;2022-10-16T10:38:50;29.80;80.50
43679;DHT22;29279;50.858;4.392;2022-10-16T10:46:45;30.30;79.00
43679;DHT22;29279;50.858;4.392;2022-10-16T10:50:02;31.40;78.10
43679;DHT22;29279;50.858;4.392;2022-10-16T11:06:15;32.70;76.40
43679;DHT22;29279;50.858;4.392;2022-10-16T11:09:25;33.10;75.00
43679;DHT22;29279;50.858;4.392;2022-10-16T11:11:56;33.70;74.40
43679;DHT22;29279;50.858;4.392;2022-10-16T11:14:30;34.50;72.30
43679;DHT22;29279;50.858;4.392;2022-10-16T11:17:05;34.10;71.10
43679;DHT22;29279;50.858;4.392;2022-10-16T11:27:40;30.90;72.10
43679;DHT22;29279;50.858;4.392;2022-10-16T11:38:02;31.70;72.60
43679;DHT22;29279;50.858;4.392;2022-10-16T11:40:31;31.70;70.20
43679;DHT22;29279;50.858;4.392;2022-10-16T11:46:08;31.90;70.80
43679;DHT22;29279;50.858;4.392;2022-10-16T11:48:46;30.90;70.90
43679;DHT22;29279;50.858;4.392;2022-10-16T11:56:48;28.50;74.00
43679;DHT22;29279;50.858;4.392;2022-10-16T11:59:42;27.30;76.10
43679;DHT22;29279;50.858;4.392;2022-10-16T12:02:34;26.60;77.90
43679;DHT22;29279;50.858;4.392;2022-10-16T12:08:12;25.50;79.10
43679;DHT22;29279;50.858;4.392;2022-10-16T12:10:41;25.60;79.70
43679;DHT22;29279;50.858;4.392;2022-10-16T12:13:39;25.60;78.10
43679;DHT22;29279;50.858;4.392;2022-10-16T12:18:31;25.70;80.50
43679;DHT22;29279;50.858;4.392;2022-10-16T12:20:57;25.80;81.50
43679;DHT22;29279;50.858;4.392;2022-10-16T12:23:38;25.50;81.40
43679;DHT22;29279;50.858;4.392;2022-10-16T12:26:05;25.10;82.30
43679;DHT22;29279;50.858;4.392;2022-10-16T12:28:32;24.80;83.20
43679;DHT22;29279;50.858;4.392;2022-10-16T12:31:03;24.40;84.20
43679;DHT22;29279;50.858;4.392;2022-10-16T12:33:31;24.00;84.90
43679;DHT22;29279;50.858;4.392;2022-10-16T12:36:00;23.40;87.50
43679;DHT22;29279;50.858;4.392;2022-10-16T12:38:35;22.80;87.90
43679;DHT22;29279;50.858;4.392;2022-10-16T12:41:03;22.40;88.60
43679;DHT22;29279;50.858;4.392;2022-10-16T12:43:36;22.20;88.50
43679;DHT22;29279;50.858;4.392;2022-10-16T12:46:19;21.80;90.30
43679;DHT22;29279;50.858;4.392;2022-10-16T12:48:47;21.60;90.70
43679;DHT22;29279;50.858;4.392;2022-10-16T12:59:24;21.20;90.90
43679;DHT22;29279;50.858;4.392;2022-10-16T13:16:34;21.60;92.40
43679;DHT22;29279;50.858;4.392;2022-10-16T13:22:04;22.00;92.30
43679;DHT22;29279;50.858;4.392;2022-10-16T13:25:02;22.00;92.00
43679;DHT22;29279;50.858;4.392;2022-10-16T13:27:59;21.80;92.60
43679;DHT22;29279;50.858;4.392;2022-10-16T13:30:27;21.90;92.50
43679;DHT22;29279;50.858;4.392;2022-10-16T13:35:50;21.70;93.00
43679;DHT22;29279;50.858;4.392;2022-10-16T13:38:21;21.90;93.10
43679;DHT22;29279;50.858;4.392;2022-10-16T13:43:33;22.00;93.40
43679;DHT22;29279;50.858;4.392;2022-10-16T13:46:05;21.80;93.80
43679;DHT22;29279;50.858;4.392;2022-10-16T13:48:32;21.50;94.40
43679;DHT22;29279;50.858;4.392;2022-10-16T13:51:10;21.10;94.60
43679;DHT22;29279;50.858;4.392;2022-10-16T13:53:36;20.90;94.80
43679;DHT22;29279;50.858;4.392;2022-10-16T13:56:11;20.70;94.50
43679;DHT22;29279;50.858;4.392;2022-10-16T13:58:37;20.70;95.10
43679;DHT22;29279;50.858;4.392;2022-10-16T14:01:05;20.60;94.60
43679;DHT22;29279;50.858;4.392;2022-10-16T14:03:33;20.60;94.70
43679;DHT22;29279;50.858;4.392;2022-10-16T14:06:03;20.70;94.90
43679;DHT22;29279;50.858;4.392;2022-10-16T14:08:30;20.60;94.80
43679;DHT22;29279;50.858;4.392;2022-10-16T14:10:59;20.60;94.90
43679;DHT22;29279;50.858;4.392;2022-10-16T14:13:37;20.50;95.20
43679;DHT22;29279;50.858;4.392;2022-10-16T14:16:07;20.60;95.30
43679;DHT22;29279;50.858;4.392;2022-10-16T14:18:34;20.70;95.30
43679;DHT22;29279;50.858;4.392;2022-10-16T14:21:11;20.50;95.30
43679;DHT22;29279;50.858;4.392;2022-10-16T14:23:39;20.60;95.30
43679;DHT22;29279;50.858;4.392;2022-10-16T14:26:15;20.40;95.60
43679;DHT22;29279;50.858;4.392;2022-10-16T14:28:44;20.30;96.20
43679;DHT22;29279;50.858;4.392;2022-10-16T14:31:31;20.30;96.40
43679;DHT22;29279;50.858;4.392;2022-10-16T14:33:58;20.30;96.40
43679;DHT22;29279;50.858;4.392;2022-10-16T14:36:25;20.40;96.80
43679;DHT22;29279;50.858;4.392;2022-10-16T14:39:05;20.50;97.00
43679;DHT22;29279;50.858;4.392;2022-10-16T14:41:33;20.60;96.80
43679;DHT22;29279;50.858;4.392;2022-10-16T14:44:06;20.60;96.80
43679;DHT22;29279;50.858;4.392;2022-10-16T14:46:36;20.60;96.90
43679;DHT22;29279;50.858;4.392;2022-10-16T14:51:39;20.60;97.20
43679;DHT22;29279;50.858;4.392;2022-10-16T14:54:13;20.70;97.00
43679;DHT22;29279;50.858;4.392;2022-10-16T14:56:58;20.80;97.00
43679;DHT22;29279;50.858;4.392;2022-10-16T14:59:35;20.60;97.20
43679;DHT22;29279;50.858;4.392;2022-10-16T15:02:30;20.50;97.60
43679;DHT22;29279;50.858;4.392;2022-10-16T15:04:55;20.40;97.90
43679;DHT22;29279;50.858;4.392;2022-10-16T15:07:21;20.50;97.70
43679;DHT22;29279;50.858;4.392;2022-10-16T15:09:47;20.40;97.80
43679;DHT22;29279;50.858;4.392;2022-10-16T15:12:13;20.40;97.90
43679;DHT22;29279;50.858;4.392;2022-10-16T15:14:39;20.40;97.90
43679;DHT22;29279;50.858;4.392;2022-10-16T15:17:04;20.40;98.00
43679;DHT22;29279;50.858;4.392;2022-10-16T15:19:30;20.40;98.20
43679;DHT22;29279;50.858;4.392;2022-10-16T15:21:56;20.30;98.50
43679;DHT22;29279;50.858;4.392;2022-10-16T15:24:22;20.30;98.50
43679;DHT22;29279;50.858;4.392;2022-10-16T15:26:48;20.10;98.60
43679;DHT22;29279;50.858;4.392;2022-10-16T15:29:16;20.10;99.10
43679;DHT22;29279;50.858;4.392;2022-10-16T15:31:41;20.10;98.90
43679;DHT22;29279;50.858;4.392;2022-10-16T15:34:13;20.10;99.40
43679;DHT22;29279;50.858;4.392;2022-10-16T15:36:39;20.10;99.50
43679;DHT22;29279;50.858;4.392;2022-10-16T15:39:13;20.00;99.90
43679;DHT22;29279;50.858;4.392;2022-10-16T15:41:39;19.90;99.90
43679;DHT22;29279;50.858;4.392;2022-10-16T15:44:05;19.90;99.90
43679;DHT22;29279;50.858;4.392;2022-10-16T15:46:30;20.10;99.90
43679;DHT22;29279;50.858;4.392;2022-10-16T15:48:59;20.30;99.90
43679;DHT22;29279;50.858;4.392;2022-10-16T15:51:26;20.30;99.90
43679;DHT22;29279;50.858;4.392;2022-10-16T15:53:58;20.30;99.90
43679;DHT22;29279;50.858;4.392;2022-10-16T15:56:24;20.30;99.90
43679;DHT22;29279;50.858;4.392;2022-10-16T15:58:51;20.50;99.90
43679;DHT22;29279;50.858;4.392;2022-10-16T16:01:18;20.40;99.90
43679;DHT22;29279;50.858;4.392;2022-10-16T16:03:44;20.20;99.90
43679;DHT22;29279;50.858;4.392;2022-10-16T16:06:12;20.30;99.90
43679;DHT22;29279;50.858;4.392;2022-10-16T16:08:38;20.00;99.90
43679;DHT22;29279;50.858;4.392;2022-10-16T16:11:10;19.90;99.90
43679;DHT22;29279;50.858;4.392;2022-10-16T16:13:36;19.90;99.90
43679;DHT22;29279;50.858;4.392;2022-10-16T16:16:08;19.80;99.90
43679;DHT22;29279;50.858;4.392;2022-10-16T16:18:34;19.80;99.90
43679;DHT22;29279;50.858;4.392;2022-10-16T16:21:00;19.80;99.90
43679;DHT22;29279;50.858;4.392;2022-10-16T16:23:25;19.80;99.90
43679;DHT22;29279;50.858;4.392;2022-10-16T16:26:07;20.00;99.90
43679;DHT22;29279;50.858;4.392;2022-10-16T16:28:35;20.00;99.90
43679;DHT22;29279;50.858;4.392;2022-10-16T16:31:01;20.10;99.90
43679;DHT22;29279;50.858;4.392;2022-10-16T16:33:27;20.00;99.90
43679;DHT22;29279;50.858;4.392;2022-10-16T16:35:57;19.90;99.90
43679;DHT22;29279;50.858;4.392;2022-10-16T16:38:23;20.00;99.90
43679;DHT22;29279;50.858;4.392;2022-10-16T16:40:49;19.90;99.90
43679;DHT22;29279;50.858;4.392;2022-10-16T16:43:14;19.90;99.90
43679;DHT22;29279;50.858;4.392;2022-10-16T16:45:40;19.90;99.90
43679;DHT22;29279;50.858;4.392;2022-10-16T16:48:06;19.80;99.90
43679;DHT22;29279;50.858;4.392;2022-10-16T16:50:36;19.80;99.90
43679;DHT22;29279;50.858;4.392;2022-10-16T16:53:02;19.90;99.90
43679;DHT22;29279;50.858;4.392;2022-10-16T16:55:27;19.90;99.90
43679;DHT22;29279;50.858;4.392;2022-10-16T16:57:53;20.20;99.90
43679;DHT22;29279;50.858;4.392;2022-10-16T17:00:19;20.10;99.90
43679;DHT22;29279;50.858;4.392;2022-10-16T17:02:48;20.10;99.90
43679;DHT22;29279;50.858;4.392;2022-10-16T17:05:14;19.90;99.90
43679;DHT22;29279;50.858;4.392;2022-10-16T17:07:40;19.70;99.90
43679;DHT22;29279;50.858;4.392;2022-10-16T17:10:07;19.70;99.90
43679;DHT22;29279;50.858;4.392;2022-10-16T17:12:33;19.70;99.90
43679;DHT22;29279;50.858;4.392;2022-10-16T17:14:58;19.70;99.90
43679;DHT22;29279;50.858;4.392;2022-10-16T17:17:24;19.60;99.90
43679;DHT22;29279;50.858;4.392;2022-10-16T17:19:50;19.30;99.90
43679;DHT22;29279;50.858;4.392;2022-10-16T17:22:16;19.20;99.90
43679;DHT22;29279;50.858;4.392;2022-10-16T17:24:42;19.10;99.90
43679;DHT22;29279;50.858;4.392;2022-10-16T17:27:08;18.90;99.90
43679;DHT22;29279;50.858;4.392;2022-10-16T17:29:34;18.70;99.90
43679;DHT22;29279;50.858;4.392;2022-10-16T17:32:00;18.50;99.90
43679;DHT22;29279;50.858;4.392;2022-10-16T17:34:26;18.30;99.90
43679;DHT22;29279;50.858;4.392;2022-10-16T17:36:51;18.10;99.90
43679;DHT22;29279;50.858;4.392;2022-10-16T17:39:18;18.20;99.90
43679;DHT22;29279;50.858;4.392;2022-10-16T17:41:44;18.30;99.90
43679;DHT22;29279;50.858;4.392;2022-10-16T17:44:11;18.00;99.90
43679;DHT22;29279;50.858;4.392;2022-10-16T17:46:51;18.00;99.90
43679;DHT22;29279;50.858;4.392;2022-10-16T17:49:17;18.00;99.90
43679;DHT22;29279;50.858;4.392;2022-10-16T17:51:43;18.00;99.90